sensor_id;sensor_type;location;lat;lon;timestamp;P1;durP1;ratioP1;P2;durP2;ratioP2
76714;SDS011;65644;44.990;20.288;2023-02-28T00:01:18;33.20;;;21.17;;
76714;SDS011;65644;44.990;20.288;2023-02-28T00:03:45;27.43;;;19.80;;
76714;SDS011;65644;44.990;20.288;2023-02-28T00:06:11;29.13;;;20.13;;
76714;SDS011;65644;44.990;20.288;2023-02-28T00:08:37;27.63;;;18.50;;
76714;SDS011;65644;44.990;20.288;2023-02-28T00:11:08;27.90;;;18.60;;
76714;SDS011;65644;44.990;20.288;2023-02-28T00:13:35;28.87;;;19.27;;
76714;SDS011;65644;44.990;20.288;2023-02-28T00:16:06;24.37;;;17.40;;
76714;SDS011;65644;44.990;20.288;2023-02-28T00:18:34;27.10;;;19.10;;
76714;SDS011;65644;44.990;20.288;2023-02-28T00:21:00;27.47;;;18.63;;
76714;SDS011;65644;44.990;20.288;2023-02-28T00:23:26;40.07;;;24.33;;
76714;SDS011;65644;44.990;20.288;2023-02-28T00:25:52;29.13;;;18.93;;
76714;SDS011;65644;44.990;20.288;2023-02-28T00:28:18;23.47;;;16.27;;
76714;SDS011;65644;44.990;20.288;2023-02-28T00:30:44;23.10;;;16.10;;
76714;SDS011;65644;44.990;20.288;2023-02-28T00:33:10;23.60;;;16.23;;
76714;SDS011;65644;44.990;20.288;2023-02-28T00:35:36;24.43;;;15.87;;
76714;SDS011;65644;44.990;20.288;2023-02-28T00:38:02;22.60;;;15.27;;
76714;SDS011;65644;44.990;20.288;2023-02-28T00:40:29;20.70;;;14.63;;
76714;SDS011;65644;44.990;20.288;2023-02-28T00:42:55;22.70;;;14.77;;
76714;SDS011;65644;44.990;20.288;2023-02-28T00:45:21;21.57;;;14.60;;
76714;SDS011;65644;44.990;20.288;2023-02-28T00:47:47;22.37;;;15.17;;
76714;SDS011;65644;44.990;20.288;2023-02-28T00:50:18;23.17;;;15.03;;
76714;SDS011;65644;44.990;20.288;2023-02-28T00:52:45;22.77;;;15.27;;
76714;SDS011;65644;44.990;20.288;2023-02-28T00:55:11;22.73;;;15.27;;
76714;SDS011;65644;44.990;20.288;2023-02-28T00:57:37;23.07;;;15.00;;
76714;SDS011;65644;44.990;20.288;2023-02-28T01:00:03;23.20;;;14.47;;
76714;SDS011;65644;44.990;20.288;2023-02-28T01:02:30;21.30;;;14.90;;
76714;SDS011;65644;44.990;20.288;2023-02-28T01:04:56;24.10;;;15.20;;
76714;SDS011;65644;44.990;20.288;2023-02-28T01:07:22;25.00;;;16.00;;
76714;SDS011;65644;44.990;20.288;2023-02-28T01:09:48;23.73;;;15.47;;
76714;SDS011;65644;44.990;20.288;2023-02-28T01:12:15;24.60;;;15.40;;
76714;SDS011;65644;44.990;20.288;2023-02-28T01:14:41;24.87;;;15.93;;
76714;SDS011;65644;44.990;20.288;2023-02-28T01:17:07;22.33;;;15.00;;
76714;SDS011;65644;44.990;20.288;2023-02-28T01:19:34;23.03;;;15.33;;
76714;SDS011;65644;44.990;20.288;2023-02-28T01:22:01;25.73;;;17.03;;
76714;SDS011;65644;44.990;20.288;2023-02-28T01:24:28;29.67;;;17.37;;
76714;SDS011;65644;44.990;20.288;2023-02-28T01:26:54;26.23;;;17.20;;
76714;SDS011;65644;44.990;20.288;2023-02-28T01:29:20;28.63;;;17.70;;
76714;SDS011;65644;44.990;20.288;2023-02-28T01:31:46;26.27;;;17.13;;
76714;SDS011;65644;44.990;20.288;2023-02-28T01:34:12;27.57;;;18.07;;
76714;SDS011;65644;44.990;20.288;2023-02-28T01:36:38;28.63;;;18.07;;
76714;SDS011;65644;44.990;20.288;2023-02-28T01:39:04;29.23;;;18.67;;
76714;SDS011;65644;44.990;20.288;2023-02-28T01:41:30;30.63;;;19.70;;
76714;SDS011;65644;44.990;20.288;2023-02-28T01:46:23;28.40;;;18.40;;
76714;SDS011;65644;44.990;20.288;2023-02-28T01:48:51;30.70;;;20.27;;
76714;SDS011;65644;44.990;20.288;2023-02-28T01:51:27;32.47;;;20.30;;
76714;SDS011;65644;44.990;20.288;2023-02-28T01:53:56;31.07;;;19.77;;
76714;SDS011;65644;44.990;20.288;2023-02-28T01:56:24;33.03;;;20.20;;
76714;SDS011;65644;44.990;20.288;2023-02-28T01:58:51;30.43;;;19.93;;
76714;SDS011;65644;44.990;20.288;2023-02-28T02:01:18;31.77;;;20.30;;
76714;SDS011;65644;44.990;20.288;2023-02-28T02:03:51;30.40;;;19.60;;
76714;SDS011;65644;44.990;20.288;2023-02-28T02:06:25;28.67;;;19.17;;
76714;SDS011;65644;44.990;20.288;2023-02-28T02:08:51;32.13;;;20.73;;
76714;SDS011;65644;44.990;20.288;2023-02-28T02:11:18;29.37;;;19.60;;
76714;SDS011;65644;44.990;20.288;2023-02-28T02:16:45;29.17;;;19.70;;
76714;SDS011;65644;44.990;20.288;2023-02-28T02:24:46;32.07;;;20.67;;
76714;SDS011;65644;44.990;20.288;2023-02-28T02:37:13;28.93;;;19.23;;
76714;SDS011;65644;44.990;20.288;2023-02-28T02:39:49;28.63;;;19.60;;
76714;SDS011;65644;44.990;20.288;2023-02-28T02:42:21;30.63;;;19.53;;
76714;SDS011;65644;44.990;20.288;2023-02-28T02:44:51;30.83;;;20.23;;
76714;SDS011;65644;44.990;20.288;2023-02-28T02:47:19;32.03;;;20.20;;
76714;SDS011;65644;44.990;20.288;2023-02-28T02:49:49;29.97;;;20.00;;
76714;SDS011;65644;44.990;20.288;2023-02-28T02:52:17;31.57;;;20.37;;
76714;SDS011;65644;44.990;20.288;2023-02-28T02:54:45;31.07;;;20.37;;
76714;SDS011;65644;44.990;20.288;2023-02-28T02:57:58;33.17;;;20.73;;
76714;SDS011;65644;44.990;20.288;2023-02-28T02:59:58;30.53;;;19.50;;
76714;SDS011;65644;44.990;20.288;2023-02-28T03:02:25;29.83;;;19.20;;
76714;SDS011;65644;44.990;20.288;2023-02-28T03:04:52;32.33;;;20.63;;
76714;SDS011;65644;44.990;20.288;2023-02-28T03:07:19;32.00;;;20.43;;
76714;SDS011;65644;44.990;20.288;2023-02-28T03:09:52;34.70;;;21.50;;
76714;SDS011;65644;44.990;20.288;2023-02-28T03:12:18;31.30;;;20.57;;
76714;SDS011;65644;44.990;20.288;2023-02-28T03:22:14;32.50;;;21.80;;
76714;SDS011;65644;44.990;20.288;2023-02-28T03:24:50;32.73;;;21.37;;
76714;SDS011;65644;44.990;20.288;2023-02-28T03:27:24;34.13;;;22.03;;
76714;SDS011;65644;44.990;20.288;2023-02-28T03:30:25;36.33;;;22.50;;
76714;SDS011;65644;44.990;20.288;2023-02-28T03:35:20;43.63;;;25.43;;
76714;SDS011;65644;44.990;20.288;2023-02-28T03:37:48;42.27;;;25.90;;
76714;SDS011;65644;44.990;20.288;2023-02-28T03:40:17;49.70;;;27.30;;
76714;SDS011;65644;44.990;20.288;2023-02-28T03:42:45;68.63;;;34.37;;
76714;SDS011;65644;44.990;20.288;2023-02-28T03:45:14;53.77;;;29.77;;
76714;SDS011;65644;44.990;20.288;2023-02-28T03:50:11;35.53;;;23.77;;
76714;SDS011;65644;44.990;20.288;2023-02-28T03:52:39;36.80;;;23.43;;
76714;SDS011;65644;44.990;20.288;2023-02-28T03:55:10;39.13;;;23.73;;
76714;SDS011;65644;44.990;20.288;2023-02-28T03:57:41;40.23;;;24.17;;
76714;SDS011;65644;44.990;20.288;2023-02-28T04:00:10;44.17;;;25.23;;
76714;SDS011;65644;44.990;20.288;2023-02-28T04:02:38;41.57;;;25.50;;
76714;SDS011;65644;44.990;20.288;2023-02-28T04:05:05;38.73;;;24.83;;
76714;SDS011;65644;44.990;20.288;2023-02-28T04:07:31;37.70;;;24.23;;
76714;SDS011;65644;44.990;20.288;2023-02-28T04:09:57;41.90;;;24.47;;
76714;SDS011;65644;44.990;20.288;2023-02-28T04:12:23;39.73;;;24.47;;
76714;SDS011;65644;44.990;20.288;2023-02-28T04:14:50;40.67;;;25.40;;
76714;SDS011;65644;44.990;20.288;2023-02-28T04:17:16;39.43;;;24.73;;
76714;SDS011;65644;44.990;20.288;2023-02-28T04:19:43;40.93;;;24.20;;
76714;SDS011;65644;44.990;20.288;2023-02-28T04:22:09;37.03;;;23.63;;
76714;SDS011;65644;44.990;20.288;2023-02-28T04:24:35;38.67;;;24.33;;
76714;SDS011;65644;44.990;20.288;2023-02-28T04:27:02;38.43;;;25.47;;
76714;SDS011;65644;44.990;20.288;2023-02-28T04:29:29;40.77;;;25.03;;
76714;SDS011;65644;44.990;20.288;2023-02-28T04:31:57;36.67;;;23.33;;
76714;SDS011;65644;44.990;20.288;2023-02-28T04:34:24;40.97;;;25.43;;
76714;SDS011;65644;44.990;20.288;2023-02-28T04:36:51;37.77;;;23.87;;
76714;SDS011;65644;44.990;20.288;2023-02-28T04:39:19;34.07;;;23.83;;
76714;SDS011;65644;44.990;20.288;2023-02-28T04:41:45;37.53;;;23.83;;
76714;SDS011;65644;44.990;20.288;2023-02-28T04:44:11;39.57;;;25.00;;
76714;SDS011;65644;44.990;20.288;2023-02-28T04:46:37;38.17;;;24.37;;
76714;SDS011;65644;44.990;20.288;2023-02-28T04:49:03;38.53;;;25.07;;
76714;SDS011;65644;44.990;20.288;2023-02-28T04:51:30;39.17;;;25.27;;
76714;SDS011;65644;44.990;20.288;2023-02-28T04:53:56;40.07;;;25.90;;
76714;SDS011;65644;44.990;20.288;2023-02-28T04:56:22;40.67;;;25.43;;
76714;SDS011;65644;44.990;20.288;2023-02-28T04:58:48;36.97;;;23.40;;
76714;SDS011;65644;44.990;20.288;2023-02-28T05:03:43;39.60;;;25.67;;
76714;SDS011;65644;44.990;20.288;2023-02-28T05:06:09;39.67;;;24.93;;
76714;SDS011;65644;44.990;20.288;2023-02-28T05:08:36;38.87;;;25.67;;
76714;SDS011;65644;44.990;20.288;2023-02-28T05:11:02;40.90;;;25.20;;
76714;SDS011;65644;44.990;20.288;2023-02-28T05:13:28;39.33;;;23.80;;
76714;SDS011;65644;44.990;20.288;2023-02-28T05:15:55;38.63;;;24.63;;
76714;SDS011;65644;44.990;20.288;2023-02-28T05:18:21;38.40;;;24.23;;
76714;SDS011;65644;44.990;20.288;2023-02-28T05:20:47;36.87;;;24.10;;
76714;SDS011;65644;44.990;20.288;2023-02-28T05:23:13;37.20;;;23.23;;
76714;SDS011;65644;44.990;20.288;2023-02-28T05:25:40;37.93;;;24.17;;
76714;SDS011;65644;44.990;20.288;2023-02-28T05:28:06;40.37;;;24.80;;
76714;SDS011;65644;44.990;20.288;2023-02-28T05:30:32;38.93;;;23.77;;
76714;SDS011;65644;44.990;20.288;2023-02-28T05:32:58;41.53;;;24.80;;
76714;SDS011;65644;44.990;20.288;2023-02-28T05:35:25;36.80;;;23.70;;
76714;SDS011;65644;44.990;20.288;2023-02-28T05:37:51;39.07;;;24.13;;
76714;SDS011;65644;44.990;20.288;2023-02-28T05:40:17;41.50;;;24.77;;
76714;SDS011;65644;44.990;20.288;2023-02-28T05:42:45;38.80;;;23.57;;
76714;SDS011;65644;44.990;20.288;2023-02-28T05:45:11;41.53;;;25.47;;
76714;SDS011;65644;44.990;20.288;2023-02-28T05:47:37;38.20;;;25.60;;
76714;SDS011;65644;44.990;20.288;2023-02-28T05:50:04;41.90;;;24.83;;
76714;SDS011;65644;44.990;20.288;2023-02-28T05:52:30;40.60;;;25.30;;
76714;SDS011;65644;44.990;20.288;2023-02-28T05:54:56;39.93;;;24.17;;
76714;SDS011;65644;44.990;20.288;2023-02-28T05:57:22;41.60;;;24.77;;
76714;SDS011;65644;44.990;20.288;2023-02-28T05:59:48;40.13;;;25.23;;
76714;SDS011;65644;44.990;20.288;2023-02-28T06:02:15;46.37;;;28.43;;
76714;SDS011;65644;44.990;20.288;2023-02-28T06:04:42;44.87;;;27.17;;
76714;SDS011;65644;44.990;20.288;2023-02-28T06:07:08;41.13;;;25.20;;
76714;SDS011;65644;44.990;20.288;2023-02-28T06:09:34;43.70;;;27.23;;
76714;SDS011;65644;44.990;20.288;2023-02-28T06:12:01;47.43;;;26.50;;
76714;SDS011;65644;44.990;20.288;2023-02-28T06:14:31;40.30;;;24.83;;
76714;SDS011;65644;44.990;20.288;2023-02-28T06:16:57;40.03;;;24.80;;
76714;SDS011;65644;44.990;20.288;2023-02-28T06:19:24;40.40;;;25.27;;
76714;SDS011;65644;44.990;20.288;2023-02-28T06:21:50;40.40;;;24.50;;
76714;SDS011;65644;44.990;20.288;2023-02-28T06:24:18;40.17;;;24.90;;
76714;SDS011;65644;44.990;20.288;2023-02-28T06:26:44;38.67;;;23.73;;
76714;SDS011;65644;44.990;20.288;2023-02-28T06:29:10;37.73;;;23.87;;
76714;SDS011;65644;44.990;20.288;2023-02-28T06:31:36;42.30;;;25.57;;
76714;SDS011;65644;44.990;20.288;2023-02-28T06:34:03;39.97;;;25.67;;
76714;SDS011;65644;44.990;20.288;2023-02-28T06:36:29;39.77;;;25.30;;
76714;SDS011;65644;44.990;20.288;2023-02-28T06:38:56;39.07;;;23.20;;
76714;SDS011;65644;44.990;20.288;2023-02-28T06:41:25;37.60;;;23.20;;
76714;SDS011;65644;44.990;20.288;2023-02-28T06:43:52;38.13;;;23.03;;
76714;SDS011;65644;44.990;20.288;2023-02-28T06:46:18;38.90;;;23.10;;
76714;SDS011;65644;44.990;20.288;2023-02-28T06:48:44;36.57;;;22.60;;
76714;SDS011;65644;44.990;20.288;2023-02-28T06:51:19;40.73;;;23.73;;
76714;SDS011;65644;44.990;20.288;2023-02-28T06:53:47;41.27;;;24.63;;
76714;SDS011;65644;44.990;20.288;2023-02-28T06:56:14;37.67;;;24.23;;
76714;SDS011;65644;44.990;20.288;2023-02-28T06:58:40;36.33;;;22.87;;
76714;SDS011;65644;44.990;20.288;2023-02-28T07:01:06;35.80;;;22.27;;
76714;SDS011;65644;44.990;20.288;2023-02-28T07:03:34;34.30;;;22.50;;
76714;SDS011;65644;44.990;20.288;2023-02-28T07:06:00;36.73;;;22.97;;
76714;SDS011;65644;44.990;20.288;2023-02-28T07:08:27;34.93;;;22.33;;
76714;SDS011;65644;44.990;20.288;2023-02-28T07:10:53;35.97;;;22.87;;
76714;SDS011;65644;44.990;20.288;2023-02-28T07:13:20;35.63;;;22.50;;
76714;SDS011;65644;44.990;20.288;2023-02-28T07:15:56;35.63;;;21.60;;
76714;SDS011;65644;44.990;20.288;2023-02-28T07:18:22;40.30;;;23.60;;
76714;SDS011;65644;44.990;20.288;2023-02-28T07:20:49;38.13;;;22.97;;
76714;SDS011;65644;44.990;20.288;2023-02-28T07:23:15;38.50;;;23.80;;
76714;SDS011;65644;44.990;20.288;2023-02-28T07:25:41;36.40;;;22.03;;
76714;SDS011;65644;44.990;20.288;2023-02-28T07:28:07;34.63;;;21.80;;
76714;SDS011;65644;44.990;20.288;2023-02-28T07:30:33;34.57;;;21.37;;
76714;SDS011;65644;44.990;20.288;2023-02-28T07:32:59;35.73;;;22.83;;
76714;SDS011;65644;44.990;20.288;2023-02-28T07:35:25;35.13;;;22.67;;
76714;SDS011;65644;44.990;20.288;2023-02-28T07:37:51;34.97;;;22.13;;
76714;SDS011;65644;44.990;20.288;2023-02-28T07:40:17;37.47;;;22.57;;
76714;SDS011;65644;44.990;20.288;2023-02-28T07:42:44;36.00;;;22.70;;
76714;SDS011;65644;44.990;20.288;2023-02-28T07:45:10;40.33;;;24.03;;
76714;SDS011;65644;44.990;20.288;2023-02-28T07:47:40;36.37;;;22.87;;
76714;SDS011;65644;44.990;20.288;2023-02-28T07:50:07;40.17;;;24.80;;
76714;SDS011;65644;44.990;20.288;2023-02-28T07:52:33;39.67;;;22.83;;
76714;SDS011;65644;44.990;20.288;2023-02-28T07:54:59;40.70;;;24.73;;
76714;SDS011;65644;44.990;20.288;2023-02-28T07:57:25;37.63;;;23.20;;
76714;SDS011;65644;44.990;20.288;2023-02-28T07:59:51;44.03;;;27.07;;
76714;SDS011;65644;44.990;20.288;2023-02-28T08:02:17;43.83;;;26.10;;
76714;SDS011;65644;44.990;20.288;2023-02-28T08:04:44;35.37;;;22.27;;
76714;SDS011;65644;44.990;20.288;2023-02-28T08:07:12;39.27;;;24.13;;
76714;SDS011;65644;44.990;20.288;2023-02-28T08:09:39;43.10;;;25.93;;
76714;SDS011;65644;44.990;20.288;2023-02-28T08:12:06;41.73;;;25.57;;
76714;SDS011;65644;44.990;20.288;2023-02-28T08:14:32;40.90;;;24.60;;
76714;SDS011;65644;44.990;20.288;2023-02-28T08:16:58;39.03;;;24.37;;
76714;SDS011;65644;44.990;20.288;2023-02-28T08:19:24;37.77;;;23.77;;
76714;SDS011;65644;44.990;20.288;2023-02-28T08:21:50;37.57;;;24.33;;
76714;SDS011;65644;44.990;20.288;2023-02-28T08:24:16;33.37;;;21.13;;
76714;SDS011;65644;44.990;20.288;2023-02-28T08:26:42;37.23;;;22.10;;
76714;SDS011;65644;44.990;20.288;2023-02-28T08:29:09;37.33;;;22.17;;
76714;SDS011;65644;44.990;20.288;2023-02-28T08:31:35;36.27;;;22.57;;
76714;SDS011;65644;44.990;20.288;2023-02-28T08:34:07;35.77;;;21.97;;
76714;SDS011;65644;44.990;20.288;2023-02-28T08:36:33;33.93;;;21.93;;
76714;SDS011;65644;44.990;20.288;2023-02-28T08:39:00;34.93;;;22.57;;
76714;SDS011;65644;44.990;20.288;2023-02-28T08:41:26;36.77;;;21.97;;
76714;SDS011;65644;44.990;20.288;2023-02-28T08:43:52;37.27;;;22.73;;
76714;SDS011;65644;44.990;20.288;2023-02-28T08:46:18;33.40;;;20.40;;
76714;SDS011;65644;44.990;20.288;2023-02-28T08:48:45;31.80;;;22.07;;
76714;SDS011;65644;44.990;20.288;2023-02-28T08:51:14;35.10;;;21.70;;
76714;SDS011;65644;44.990;20.288;2023-02-28T08:53:43;32.47;;;21.37;;
76714;SDS011;65644;44.990;20.288;2023-02-28T08:56:11;31.47;;;20.57;;
76714;SDS011;65644;44.990;20.288;2023-02-28T08:58:38;35.07;;;20.93;;
76714;SDS011;65644;44.990;20.288;2023-02-28T09:01:08;33.67;;;20.97;;
76714;SDS011;65644;44.990;20.288;2023-02-28T09:03:34;29.90;;;18.93;;
76714;SDS011;65644;44.990;20.288;2023-02-28T09:06:00;31.50;;;20.67;;
76714;SDS011;65644;44.990;20.288;2023-02-28T09:08:27;30.50;;;19.97;;
76714;SDS011;65644;44.990;20.288;2023-02-28T09:10:54;34.97;;;22.50;;
76714;SDS011;65644;44.990;20.288;2023-02-28T09:13:22;38.53;;;23.83;;
76714;SDS011;65644;44.990;20.288;2023-02-28T09:15:48;31.37;;;19.83;;
76714;SDS011;65644;44.990;20.288;2023-02-28T09:18:14;31.60;;;20.33;;
76714;SDS011;65644;44.990;20.288;2023-02-28T09:20:41;30.77;;;19.60;;
76714;SDS011;65644;44.990;20.288;2023-02-28T09:23:08;34.77;;;20.53;;
76714;SDS011;65644;44.990;20.288;2023-02-28T09:25:34;31.93;;;20.83;;
76714;SDS011;65644;44.990;20.288;2023-02-28T09:28:00;33.10;;;22.10;;
76714;SDS011;65644;44.990;20.288;2023-02-28T09:30:26;29.63;;;19.80;;
76714;SDS011;65644;44.990;20.288;2023-02-28T09:32:52;32.07;;;21.97;;
76714;SDS011;65644;44.990;20.288;2023-02-28T09:35:22;32.67;;;20.20;;
76714;SDS011;65644;44.990;20.288;2023-02-28T09:37:51;30.17;;;20.13;;
76714;SDS011;65644;44.990;20.288;2023-02-28T09:40:20;30.37;;;20.40;;
76714;SDS011;65644;44.990;20.288;2023-02-28T09:42:48;31.73;;;20.47;;
76714;SDS011;65644;44.990;20.288;2023-02-28T09:45:19;35.40;;;23.10;;
76714;SDS011;65644;44.990;20.288;2023-02-28T09:47:47;37.60;;;23.33;;
76714;SDS011;65644;44.990;20.288;2023-02-28T09:52:43;34.97;;;23.83;;
76714;SDS011;65644;44.990;20.288;2023-02-28T09:57:57;40.40;;;27.40;;
76714;SDS011;65644;44.990;20.288;2023-02-28T10:00:28;34.83;;;23.10;;
76714;SDS011;65644;44.990;20.288;2023-02-28T10:05:57;27.83;;;18.00;;
76714;SDS011;65644;44.990;20.288;2023-02-28T10:08:25;24.97;;;16.80;;
76714;SDS011;65644;44.990;20.288;2023-02-28T10:10:56;23.83;;;16.30;;
76714;SDS011;65644;44.990;20.288;2023-02-28T10:13:44;28.03;;;18.83;;
76714;SDS011;65644;44.990;20.288;2023-02-28T10:16:15;21.80;;;16.33;;
76714;SDS011;65644;44.990;20.288;2023-02-28T10:18:43;23.33;;;15.70;;
76714;SDS011;65644;44.990;20.288;2023-02-28T10:21:21;27.00;;;17.10;;
76714;SDS011;65644;44.990;20.288;2023-02-28T10:23:49;23.50;;;16.17;;
76714;SDS011;65644;44.990;20.288;2023-02-28T10:26:17;22.47;;;16.07;;
76714;SDS011;65644;44.990;20.288;2023-02-28T10:28:43;24.03;;;15.53;;
76714;SDS011;65644;44.990;20.288;2023-02-28T10:31:17;35.30;;;17.83;;
76714;SDS011;65644;44.990;20.288;2023-02-28T10:33:44;29.53;;;18.13;;
76714;SDS011;65644;44.990;20.288;2023-02-28T10:36:12;25.03;;;16.73;;
76714;SDS011;65644;44.990;20.288;2023-02-28T10:38:39;23.67;;;15.83;;
76714;SDS011;65644;44.990;20.288;2023-02-28T10:41:07;40.33;;;24.37;;
76714;SDS011;65644;44.990;20.288;2023-02-28T10:43:33;28.50;;;19.30;;
76714;SDS011;65644;44.990;20.288;2023-02-28T10:51:05;34.40;;;23.50;;
76714;SDS011;65644;44.990;20.288;2023-02-28T10:53:32;32.53;;;16.43;;
76714;SDS011;65644;44.990;20.288;2023-02-28T10:56:03;21.83;;;14.77;;
76714;SDS011;65644;44.990;20.288;2023-02-28T10:58:31;22.97;;;16.03;;
76714;SDS011;65644;44.990;20.288;2023-02-28T11:00:58;22.23;;;15.93;;
76714;SDS011;65644;44.990;20.288;2023-02-28T11:05:50;26.00;;;17.47;;
76714;SDS011;65644;44.990;20.288;2023-02-28T11:08:17;24.97;;;17.07;;
76714;SDS011;65644;44.990;20.288;2023-02-28T11:10:54;21.50;;;14.60;;
76714;SDS011;65644;44.990;20.288;2023-02-28T11:13:21;26.13;;;18.73;;
76714;SDS011;65644;44.990;20.288;2023-02-28T11:15:54;23.33;;;16.60;;
76714;SDS011;65644;44.990;20.288;2023-02-28T11:20:52;22.17;;;15.10;;
76714;SDS011;65644;44.990;20.288;2023-02-28T11:23:19;20.23;;;13.67;;
76714;SDS011;65644;44.990;20.288;2023-02-28T11:25:47;23.13;;;16.37;;
76714;SDS011;65644;44.990;20.288;2023-02-28T11:28:48;19.53;;;14.43;;
76714;SDS011;65644;44.990;20.288;2023-02-28T11:33:57;32.57;;;24.63;;
76714;SDS011;65644;44.990;20.288;2023-02-28T11:36:31;27.77;;;20.67;;
76714;SDS011;65644;44.990;20.288;2023-02-28T11:39:04;23.00;;;15.23;;
76714;SDS011;65644;44.990;20.288;2023-02-28T11:44:04;21.13;;;13.87;;
76714;SDS011;65644;44.990;20.288;2023-02-28T11:46:44;14.80;;;11.63;;
76714;SDS011;65644;44.990;20.288;2023-02-28T11:56:52;22.90;;;16.73;;
76714;SDS011;65644;44.990;20.288;2023-02-28T12:07:21;25.10;;;18.03;;
76714;SDS011;65644;44.990;20.288;2023-02-28T12:22:29;18.03;;;13.43;;
76714;SDS011;65644;44.990;20.288;2023-02-28T12:27:41;26.67;;;18.17;;
76714;SDS011;65644;44.990;20.288;2023-02-28T12:32:54;23.50;;;17.53;;
76714;SDS011;65644;44.990;20.288;2023-02-28T12:35:23;21.97;;;15.43;;
76714;SDS011;65644;44.990;20.288;2023-02-28T12:37:57;19.37;;;14.70;;
76714;SDS011;65644;44.990;20.288;2023-02-28T12:40:27;22.95;;;16.15;;
76714;SDS011;65644;44.990;20.288;2023-02-28T12:42:56;24.93;;;19.77;;
76714;SDS011;65644;44.990;20.288;2023-02-28T12:45:23;25.27;;;17.60;;
76714;SDS011;65644;44.990;20.288;2023-02-28T12:47:57;24.23;;;17.07;;
76714;SDS011;65644;44.990;20.288;2023-02-28T12:50:24;21.63;;;15.27;;
76714;SDS011;65644;44.990;20.288;2023-02-28T12:52:59;21.33;;;14.87;;
76714;SDS011;65644;44.990;20.288;2023-02-28T12:55:38;23.50;;;16.13;;
76714;SDS011;65644;44.990;20.288;2023-02-28T13:00:36;24.60;;;16.83;;
76714;SDS011;65644;44.990;20.288;2023-02-28T13:03:18;18.33;;;13.77;;
76714;SDS011;65644;44.990;20.288;2023-02-28T13:08:22;23.00;;;16.23;;
76714;SDS011;65644;44.990;20.288;2023-02-28T13:10:53;88.10;;;47.88;;
76714;SDS011;65644;44.990;20.288;2023-02-28T13:13:29;42.60;;;27.00;;
76714;SDS011;65644;44.990;20.288;2023-02-28T13:16:00;59.33;;;35.60;;
76714;SDS011;65644;44.990;20.288;2023-02-28T13:18:36;34.47;;;23.83;;
76714;SDS011;65644;44.990;20.288;2023-02-28T13:21:04;24.20;;;17.30;;
76714;SDS011;65644;44.990;20.288;2023-02-28T13:26:12;32.37;;;22.37;;
76714;SDS011;65644;44.990;20.288;2023-02-28T13:31:18;28.63;;;19.47;;
76714;SDS011;65644;44.990;20.288;2023-02-28T13:36:29;30.53;;;21.33;;
76714;SDS011;65644;44.990;20.288;2023-02-28T13:39:00;28.43;;;19.33;;
76714;SDS011;65644;44.990;20.288;2023-02-28T13:46:27;27.17;;;19.57;;
76714;SDS011;65644;44.990;20.288;2023-02-28T13:48:53;28.80;;;19.10;;
76714;SDS011;65644;44.990;20.288;2023-02-28T13:54:15;24.80;;;17.43;;
76714;SDS011;65644;44.990;20.288;2023-02-28T14:07:08;49.25;;;28.88;;
76714;SDS011;65644;44.990;20.288;2023-02-28T14:09:36;38.40;;;22.93;;
76714;SDS011;65644;44.990;20.288;2023-02-28T14:17:15;39.07;;;24.63;;
76714;SDS011;65644;44.990;20.288;2023-02-28T14:19:44;40.73;;;26.53;;
76714;SDS011;65644;44.990;20.288;2023-02-28T14:25:09;39.42;;;24.73;;
76714;SDS011;65644;44.990;20.288;2023-02-28T14:27:38;50.10;;;31.60;;
76714;SDS011;65644;44.990;20.288;2023-02-28T14:32:44;31.67;;;19.43;;
76714;SDS011;65644;44.990;20.288;2023-02-28T14:37:37;36.17;;;22.03;;
76714;SDS011;65644;44.990;20.288;2023-02-28T14:40:04;30.63;;;19.73;;
76714;SDS011;65644;44.990;20.288;2023-02-28T14:42:37;31.33;;;19.40;;
76714;SDS011;65644;44.990;20.288;2023-02-28T14:45:16;31.30;;;19.57;;
76714;SDS011;65644;44.990;20.288;2023-02-28T14:47:43;32.23;;;20.93;;
76714;SDS011;65644;44.990;20.288;2023-02-28T14:50:17;30.97;;;20.10;;
76714;SDS011;65644;44.990;20.288;2023-02-28T14:52:44;29.98;;;20.50;;
76714;SDS011;65644;44.990;20.288;2023-02-28T14:55:12;36.77;;;22.60;;
76714;SDS011;65644;44.990;20.288;2023-02-28T14:57:41;36.97;;;24.33;;
76714;SDS011;65644;44.990;20.288;2023-02-28T15:02:35;34.73;;;22.17;;
76714;SDS011;65644;44.990;20.288;2023-02-28T15:05:14;31.87;;;19.97;;
76714;SDS011;65644;44.990;20.288;2023-02-28T15:07:46;28.73;;;18.50;;
76714;SDS011;65644;44.990;20.288;2023-02-28T15:10:25;37.37;;;24.47;;
76714;SDS011;65644;44.990;20.288;2023-02-28T15:12:52;44.40;;;26.83;;
76714;SDS011;65644;44.990;20.288;2023-02-28T15:15:21;34.33;;;20.17;;
76714;SDS011;65644;44.990;20.288;2023-02-28T15:17:49;39.07;;;22.20;;
76714;SDS011;65644;44.990;20.288;2023-02-28T15:20:16;35.67;;;22.53;;
76714;SDS011;65644;44.990;20.288;2023-02-28T15:22:43;36.10;;;21.87;;
76714;SDS011;65644;44.990;20.288;2023-02-28T15:25:13;106.60;;;50.53;;
76714;SDS011;65644;44.990;20.288;2023-02-28T15:27:47;54.77;;;29.57;;
76714;SDS011;65644;44.990;20.288;2023-02-28T15:30:15;43.97;;;25.97;;
76714;SDS011;65644;44.990;20.288;2023-02-28T15:32:42;43.67;;;24.57;;
76714;SDS011;65644;44.990;20.288;2023-02-28T15:37:47;39.15;;;24.98;;
76714;SDS011;65644;44.990;20.288;2023-02-28T15:40:25;33.50;;;20.47;;
76714;SDS011;65644;44.990;20.288;2023-02-28T15:48:05;43.83;;;26.03;;
76714;SDS011;65644;44.990;20.288;2023-02-28T15:50:36;40.77;;;26.57;;
76714;SDS011;65644;44.990;20.288;2023-02-28T15:53:03;39.60;;;25.10;;
76714;SDS011;65644;44.990;20.288;2023-02-28T15:55:29;41.60;;;24.93;;
76714;SDS011;65644;44.990;20.288;2023-02-28T15:57:56;35.20;;;21.33;;
76714;SDS011;65644;44.990;20.288;2023-02-28T16:00:24;39.30;;;22.23;;
76714;SDS011;65644;44.990;20.288;2023-02-28T16:02:51;32.57;;;19.67;;
76714;SDS011;65644;44.990;20.288;2023-02-28T16:05:30;42.33;;;24.27;;
76714;SDS011;65644;44.990;20.288;2023-02-28T16:08:01;36.60;;;22.03;;
76714;SDS011;65644;44.990;20.288;2023-02-28T16:10:28;52.80;;;29.33;;
76714;SDS011;65644;44.990;20.288;2023-02-28T16:12:55;50.37;;;27.50;;
76714;SDS011;65644;44.990;20.288;2023-02-28T16:15:22;47.87;;;27.90;;
76714;SDS011;65644;44.990;20.288;2023-02-28T16:17:51;52.47;;;31.63;;
76714;SDS011;65644;44.990;20.288;2023-02-28T16:22:43;79.63;;;42.30;;
76714;SDS011;65644;44.990;20.288;2023-02-28T16:25:17;72.63;;;41.53;;
76714;SDS011;65644;44.990;20.288;2023-02-28T16:27:45;83.90;;;46.03;;
76714;SDS011;65644;44.990;20.288;2023-02-28T16:30:21;68.03;;;37.20;;
76714;SDS011;65644;44.990;20.288;2023-02-28T16:32:47;77.00;;;37.43;;
76714;SDS011;65644;44.990;20.288;2023-02-28T16:35:14;50.83;;;27.73;;
76714;SDS011;65644;44.990;20.288;2023-02-28T16:37:40;81.17;;;40.33;;
76714;SDS011;65644;44.990;20.288;2023-02-28T16:40:09;64.07;;;32.63;;
76714;SDS011;65644;44.990;20.288;2023-02-28T16:42:37;77.73;;;37.20;;
76714;SDS011;65644;44.990;20.288;2023-02-28T16:45:03;87.30;;;44.70;;